Главная страница
METAR-TAF:

METAR-TAF

Аэропорты :

Олесунн, Норвегия

широта: 62-34N, долгота: 006-07E, высота над уровнем моря: 2 м

Текущие метеонаблюдения

Эта сводка был подготовлена 21 минут назад, в 14:20 UTC
Ветер 9 Узел от северо-северо-восточный
Температура 17°C
Влажность 68%
Давление 1026 hPa
Видимость 10 км и более
небольшая облачность на высоте 2300 фута

METAR: ENAL 091420Z 03009KT 9999 FEW023 17/11 Q1026

Время: 16:41 (14:41 UTC)

Прогноз

Эта сводка был подготовлена 3 часа и 41 минут назад, в 11:00 UTC
Прогноз действительный с 09-го 12 UTC до 09-го 21 UTC
Ветер 5 Узел от западно-северо-западный
Видимость 10 км и более
небольшая облачность на высоте 2500 фута
изменения
С 09-го 13 UTC до 09-го 15 UTC
Ветер 10 Узел от северо-северо-восточный

TAF: ENAL 091100Z 0912/0921 30005KT 9999 FEW025 BECMG 0913/0915 03010KT

Метеонаблюдения и прогнозы для более 4000 аэропортов (сводки METAR и TAF).

Имеющиеся станции представлены на карте желтыми и красными точками.

Чтобы увидеть название станции, наведите на нее мышь.

Затем щелкните, чтобы увидеть метеонаблюдения и метеопрогнозы.

Управление картой: чтобы увеличить масштаб, щелкните зеленые кнопки с черным крестиком; чтобы уменьшить масштаб, щелкните зеленую кнопку с тире; для просмотра соседних карт щелкайте зеленые стрелки.


METAR-TAF: